sensor_id;sensor_type;location;lat;lon;timestamp;pressure;altitude;pressure_sealevel;temperature;humidity
63535;BME280;55128;50.230;18.944;2023-06-14T00:02:44;98400.84;;;10.32;88.08
63535;BME280;55128;50.230;18.944;2023-06-14T00:07:44;98393.22;;;10.24;88.80
63535;BME280;55128;50.230;18.944;2023-06-14T00:12:45;98393.84;;;10.31;88.52
63535;BME280;55128;50.230;18.944;2023-06-14T00:17:45;98391.88;;;10.35;87.63
63535;BME280;55128;50.230;18.944;2023-06-14T00:22:47;98387.44;;;10.35;87.59
63535;BME280;55128;50.230;18.944;2023-06-14T00:27:48;98387.78;;;10.27;87.85
63535;BME280;55128;50.230;18.944;2023-06-14T00:32:48;98382.41;;;10.29;87.19
63535;BME280;55128;50.230;18.944;2023-06-14T00:37:49;98381.03;;;10.20;86.92
63535;BME280;55128;50.230;18.944;2023-06-14T00:42:50;98373.75;;;10.06;87.27
63535;BME280;55128;50.230;18.944;2023-06-14T00:47:51;98375.13;;;9.96;86.75
63535;BME280;55128;50.230;18.944;2023-06-14T00:52:56;98365.59;;;9.92;85.97
63535;BME280;55128;50.230;18.944;2023-06-14T00:57:56;98374.34;;;9.75;85.38
63535;BME280;55128;50.230;18.944;2023-06-14T01:02:57;98376.56;;;9.65;85.44
63535;BME280;55128;50.230;18.944;2023-06-14T01:13:22;98364.56;;;9.38;85.50
63535;BME280;55128;50.230;18.944;2023-06-14T01:18:23;98366.97;;;9.23;85.46
63535;BME280;55128;50.230;18.944;2023-06-14T01:23:26;98363.16;;;9.10;85.64
63535;BME280;55128;50.230;18.944;2023-06-14T01:28:33;98360.50;;;9.10;85.17
63535;BME280;55128;50.230;18.944;2023-06-14T01:33:35;98367.66;;;9.08;84.80
63535;BME280;55128;50.230;18.944;2023-06-14T01:38:37;98373.25;;;9.02;84.44
63535;BME280;55128;50.230;18.944;2023-06-14T01:43:38;98366.16;;;8.82;84.88
63535;BME280;55128;50.230;18.944;2023-06-14T01:48:40;98361.19;;;8.74;84.52
63535;BME280;55128;50.230;18.944;2023-06-14T01:53:40;98369.59;;;8.84;84.16
63535;BME280;55128;50.230;18.944;2023-06-14T01:58:41;98357.97;;;8.67;85.07
63535;BME280;55128;50.230;18.944;2023-06-14T02:03:41;98363.50;;;8.61;85.23
63535;BME280;55128;50.230;18.944;2023-06-14T02:08:42;98363.66;;;8.79;86.42
63535;BME280;55128;50.230;18.944;2023-06-14T02:13:42;98358.16;;;9.04;86.00
63535;BME280;55128;50.230;18.944;2023-06-14T02:18:43;98362.97;;;9.14;85.65
63535;BME280;55128;50.230;18.944;2023-06-14T02:23:44;98360.09;;;9.19;86.38
63535;BME280;55128;50.230;18.944;2023-06-14T02:28:44;98355.72;;;9.39;86.18
63535;BME280;55128;50.230;18.944;2023-06-14T02:33:45;98360.25;;;9.56;85.71
63535;BME280;55128;50.230;18.944;2023-06-14T02:38:45;98347.00;;;9.56;84.92
63535;BME280;55128;50.230;18.944;2023-06-14T02:43:46;98363.50;;;9.61;85.71
63535;BME280;55128;50.230;18.944;2023-06-14T02:48:47;98352.06;;;9.79;86.54
63535;BME280;55128;50.230;18.944;2023-06-14T02:53:47;98348.53;;;9.98;85.48
63535;BME280;55128;50.230;18.944;2023-06-14T02:58:48;98347.31;;;10.05;85.69
63535;BME280;55128;50.230;18.944;2023-06-14T03:03:48;98348.84;;;10.28;85.22
63535;BME280;55128;50.230;18.944;2023-06-14T03:08:49;98350.75;;;10.43;84.47
63535;BME280;55128;50.230;18.944;2023-06-14T03:13:49;98353.59;;;10.40;85.68
63535;BME280;55128;50.230;18.944;2023-06-14T03:18:51;98347.50;;;10.73;85.18
63535;BME280;55128;50.230;18.944;2023-06-14T03:23:52;98357.66;;;10.82;84.28
63535;BME280;55128;50.230;18.944;2023-06-14T03:28:53;98361.84;;;10.86;84.31
63535;BME280;55128;50.230;18.944;2023-06-14T03:33:53;98350.97;;;11.08;83.47
63535;BME280;55128;50.230;18.944;2023-06-14T03:38:54;98358.09;;;11.08;82.93
63535;BME280;55128;50.230;18.944;2023-06-14T03:43:55;98366.50;;;11.16;83.57
63535;BME280;55128;50.230;18.944;2023-06-14T03:48:55;98368.00;;;11.22;82.62
63535;BME280;55128;50.230;18.944;2023-06-14T03:53:56;98354.41;;;11.44;83.20
63535;BME280;55128;50.230;18.944;2023-06-14T03:58:56;98356.47;;;11.88;81.80
63535;BME280;55128;50.230;18.944;2023-06-14T04:03:57;98359.91;;;12.22;80.58
63535;BME280;55128;50.230;18.944;2023-06-14T04:08:59;98355.44;;;12.06;80.21
63535;BME280;55128;50.230;18.944;2023-06-14T04:14:03;98368.31;;;12.30;79.41
63535;BME280;55128;50.230;18.944;2023-06-14T04:19:03;98367.78;;;12.39;79.50
63535;BME280;55128;50.230;18.944;2023-06-14T04:24:04;98366.72;;;12.42;79.17
63535;BME280;55128;50.230;18.944;2023-06-14T04:29:04;98373.34;;;12.51;79.16
63535;BME280;55128;50.230;18.944;2023-06-14T04:34:05;98372.44;;;12.66;78.72
63535;BME280;55128;50.230;18.944;2023-06-14T04:39:07;98360.72;;;12.84;77.92
63535;BME280;55128;50.230;18.944;2023-06-14T04:44:08;98369.75;;;12.96;78.45
63535;BME280;55128;50.230;18.944;2023-06-14T04:49:10;98364.56;;;13.09;78.48
63535;BME280;55128;50.230;18.944;2023-06-14T04:54:14;98363.44;;;13.28;77.80
63535;BME280;55128;50.230;18.944;2023-06-14T04:59:15;98371.28;;;13.45;77.02
63535;BME280;55128;50.230;18.944;2023-06-14T05:04:18;98374.34;;;13.39;76.75
63535;BME280;55128;50.230;18.944;2023-06-14T05:09:18;98382.50;;;13.36;76.52
63535;BME280;55128;50.230;18.944;2023-06-14T05:14:19;98391.84;;;13.43;76.11
63535;BME280;55128;50.230;18.944;2023-06-14T05:19:20;98386.25;;;13.33;76.77
63535;BME280;55128;50.230;18.944;2023-06-14T05:24:20;98389.75;;;13.63;76.23
63535;BME280;55128;50.230;18.944;2023-06-14T05:29:21;98393.84;;;13.68;76.63
63535;BME280;55128;50.230;18.944;2023-06-14T05:34:21;98401.28;;;13.92;77.02
63535;BME280;55128;50.230;18.944;2023-06-14T05:39:21;98402.47;;;14.15;76.07
63535;BME280;55128;50.230;18.944;2023-06-14T05:44:22;98405.91;;;14.17;75.67
63535;BME280;55128;50.230;18.944;2023-06-14T05:49:22;98403.03;;;14.20;75.32
63535;BME280;55128;50.230;18.944;2023-06-14T05:54:22;98404.50;;;14.53;74.83
63535;BME280;55128;50.230;18.944;2023-06-14T05:59:23;98403.22;;;14.31;75.25
63535;BME280;55128;50.230;18.944;2023-06-14T06:04:23;98398.59;;;14.48;73.94
63535;BME280;55128;50.230;18.944;2023-06-14T06:09:24;98405.53;;;14.23;75.44
63535;BME280;55128;50.230;18.944;2023-06-14T06:14:24;98407.03;;;14.27;75.62
63535;BME280;55128;50.230;18.944;2023-06-14T06:19:24;98405.03;;;14.31;75.83
63535;BME280;55128;50.230;18.944;2023-06-14T06:24:25;98415.78;;;14.44;75.35
63535;BME280;55128;50.230;18.944;2023-06-14T06:29:26;98426.31;;;14.32;75.57
63535;BME280;55128;50.230;18.944;2023-06-14T06:34:26;98433.16;;;14.22;75.67
63535;BME280;55128;50.230;18.944;2023-06-14T06:39:26;98425.81;;;14.40;75.89
63535;BME280;55128;50.230;18.944;2023-06-14T06:44:27;98434.47;;;14.44;76.01
63535;BME280;55128;50.230;18.944;2023-06-14T06:49:27;98427.41;;;14.57;75.81
63535;BME280;55128;50.230;18.944;2023-06-14T06:54:28;98431.69;;;14.87;74.93
63535;BME280;55128;50.230;18.944;2023-06-14T06:59:28;98435.50;;;14.83;75.93
63535;BME280;55128;50.230;18.944;2023-06-14T07:04:28;98439.66;;;15.14;77.11
63535;BME280;55128;50.230;18.944;2023-06-14T07:09:29;98434.13;;;15.55;77.85
63535;BME280;55128;50.230;18.944;2023-06-14T07:14:29;98441.56;;;15.78;76.22
63535;BME280;55128;50.230;18.944;2023-06-14T07:19:30;98445.69;;;16.20;75.31
63535;BME280;55128;50.230;18.944;2023-06-14T07:24:31;98446.63;;;16.19;73.86
63535;BME280;55128;50.230;18.944;2023-06-14T07:29:32;98446.78;;;16.05;73.59
63535;BME280;55128;50.230;18.944;2023-06-14T07:34:32;98455.66;;;15.67;74.75
63535;BME280;55128;50.230;18.944;2023-06-14T07:39:33;98458.91;;;15.85;74.23
63535;BME280;55128;50.230;18.944;2023-06-14T07:44:34;98464.06;;;15.35;74.03
63535;BME280;55128;50.230;18.944;2023-06-14T07:49:34;98466.63;;;15.24;74.37
63535;BME280;55128;50.230;18.944;2023-06-14T07:54:35;98470.31;;;15.35;74.14
63535;BME280;55128;50.230;18.944;2023-06-14T07:59:36;98477.16;;;15.52;73.04
63535;BME280;55128;50.230;18.944;2023-06-14T08:04:36;98481.66;;;15.39;73.57
63535;BME280;55128;50.230;18.944;2023-06-14T08:09:36;98478.84;;;15.28;73.49
63535;BME280;55128;50.230;18.944;2023-06-14T08:14:39;98478.38;;;15.21;74.04
63535;BME280;55128;50.230;18.944;2023-06-14T08:19:40;98473.13;;;15.20;74.29
63535;BME280;55128;50.230;18.944;2023-06-14T08:24:41;98474.22;;;15.17;74.01
63535;BME280;55128;50.230;18.944;2023-06-14T08:29:42;98463.19;;;15.22;74.22
63535;BME280;55128;50.230;18.944;2023-06-14T08:34:42;98468.97;;;15.15;74.67
63535;BME280;55128;50.230;18.944;2023-06-14T08:39:42;98466.13;;;15.44;74.57
63535;BME280;55128;50.230;18.944;2023-06-14T08:44:44;98478.50;;;15.85;72.54
63535;BME280;55128;50.230;18.944;2023-06-14T08:49:46;98478.56;;;15.71;71.85
63535;BME280;55128;50.230;18.944;2023-06-14T08:54:48;98486.69;;;15.57;73.08
63535;BME280;55128;50.230;18.944;2023-06-14T08:59:51;98498.44;;;15.41;73.66
63535;BME280;55128;50.230;18.944;2023-06-14T09:04:53;98502.50;;;15.34;74.57
63535;BME280;55128;50.230;18.944;2023-06-14T09:10:14;98511.19;;;15.10;76.50
63535;BME280;55128;50.230;18.944;2023-06-14T09:15:15;98509.69;;;15.06;77.72
63535;BME280;55128;50.230;18.944;2023-06-14T09:20:15;98507.25;;;15.16;77.70
63535;BME280;55128;50.230;18.944;2023-06-14T09:25:18;98511.06;;;15.39;77.75
63535;BME280;55128;50.230;18.944;2023-06-14T09:30:20;98514.63;;;15.52;78.17
63535;BME280;55128;50.230;18.944;2023-06-14T09:35:21;98507.28;;;15.94;75.68
63535;BME280;55128;50.230;18.944;2023-06-14T09:40:21;98505.53;;;16.45;74.54
63535;BME280;55128;50.230;18.944;2023-06-14T09:45:22;98511.59;;;16.60;73.80
63535;BME280;55128;50.230;18.944;2023-06-14T09:50:22;98504.22;;;16.63;72.89
63535;BME280;55128;50.230;18.944;2023-06-14T09:55:24;98513.09;;;16.64;72.95
63535;BME280;55128;50.230;18.944;2023-06-14T10:00:26;98514.13;;;16.87;72.92
63535;BME280;55128;50.230;18.944;2023-06-14T10:05:27;98520.84;;;16.80;71.19
63535;BME280;55128;50.230;18.944;2023-06-14T10:10:28;98520.53;;;16.35;72.20
63535;BME280;55128;50.230;18.944;2023-06-14T10:15:47;98518.31;;;16.16;72.73
63535;BME280;55128;50.230;18.944;2023-06-14T10:26:00;98527.91;;;15.67;73.21
63535;BME280;55128;50.230;18.944;2023-06-14T10:31:09;98521.97;;;16.02;71.47
63535;BME280;55128;50.230;18.944;2023-06-14T10:41:23;98510.06;;;17.05;68.76
63535;BME280;55128;50.230;18.944;2023-06-14T10:46:28;98504.28;;;17.58;67.40
63535;BME280;55128;50.230;18.944;2023-06-14T10:51:30;98507.25;;;18.24;64.69
63535;BME280;55128;50.230;18.944;2023-06-14T10:56:52;98503.66;;;18.80;63.43
63535;BME280;55128;50.230;18.944;2023-06-14T11:13:16;98499.75;;;18.96;60.55
63535;BME280;55128;50.230;18.944;2023-06-14T11:18:17;98486.94;;;18.54;61.82
63535;BME280;55128;50.230;18.944;2023-06-14T11:23:18;98493.88;;;18.79;61.36
63535;BME280;55128;50.230;18.944;2023-06-14T11:28:18;98492.13;;;19.33;59.12
63535;BME280;55128;50.230;18.944;2023-06-14T11:33:22;98491.94;;;20.09;56.96
63535;BME280;55128;50.230;18.944;2023-06-14T11:38:22;98488.94;;;19.81;55.64
63535;BME280;55128;50.230;18.944;2023-06-14T11:43:24;98491.75;;;20.32;55.20
63535;BME280;55128;50.230;18.944;2023-06-14T11:48:45;98486.50;;;20.61;54.23
63535;BME280;55128;50.230;18.944;2023-06-14T11:53:46;98485.13;;;20.05;54.83
63535;BME280;55128;50.230;18.944;2023-06-14T11:58:46;98492.16;;;18.78;59.82
63535;BME280;55128;50.230;18.944;2023-06-14T12:03:48;98484.03;;;18.46;62.19
63535;BME280;55128;50.230;18.944;2023-06-14T12:08:49;98488.66;;;17.99;63.92
63535;BME280;55128;50.230;18.944;2023-06-14T12:13:50;98477.53;;;18.03;65.01
63535;BME280;55128;50.230;18.944;2023-06-14T12:18:53;98473.16;;;18.14;63.86
63535;BME280;55128;50.230;18.944;2023-06-14T12:23:53;98463.97;;;18.50;64.20
63535;BME280;55128;50.230;18.944;2023-06-14T12:28:54;98458.06;;;18.79;61.78
63535;BME280;55128;50.230;18.944;2023-06-14T12:33:54;98465.84;;;19.26;59.61
63535;BME280;55128;50.230;18.944;2023-06-14T12:38:54;98452.00;;;19.51;58.05
63535;BME280;55128;50.230;18.944;2023-06-14T12:43:55;98452.06;;;19.61;57.49
63535;BME280;55128;50.230;18.944;2023-06-14T12:48:58;98447.16;;;19.45;57.38
63535;BME280;55128;50.230;18.944;2023-06-14T12:53:58;98445.28;;;20.09;57.67
63535;BME280;55128;50.230;18.944;2023-06-14T12:58:58;98437.97;;;19.90;58.23
63535;BME280;55128;50.230;18.944;2023-06-14T13:03:59;98436.13;;;20.31;53.80
63535;BME280;55128;50.230;18.944;2023-06-14T13:09:00;98436.13;;;19.69;54.84
63535;BME280;55128;50.230;18.944;2023-06-14T13:14:01;98427.88;;;20.23;52.94
63535;BME280;55128;50.230;18.944;2023-06-14T13:19:01;98433.94;;;20.55;52.11
63535;BME280;55128;50.230;18.944;2023-06-14T13:24:02;98431.34;;;20.44;49.76
63535;BME280;55128;50.230;18.944;2023-06-14T13:29:02;98430.91;;;20.99;48.12
63535;BME280;55128;50.230;18.944;2023-06-14T13:34:03;98433.06;;;20.55;47.38
63535;BME280;55128;50.230;18.944;2023-06-14T13:39:04;98426.34;;;20.30;48.93
63535;BME280;55128;50.230;18.944;2023-06-14T13:44:05;98424.25;;;20.53;47.31
63535;BME280;55128;50.230;18.944;2023-06-14T13:49:05;98419.09;;;20.30;46.84
63535;BME280;55128;50.230;18.944;2023-06-14T13:54:06;98419.78;;;20.63;47.44
63535;BME280;55128;50.230;18.944;2023-06-14T13:59:06;98421.22;;;20.96;47.37
63535;BME280;55128;50.230;18.944;2023-06-14T14:04:07;98425.03;;;21.43;48.15
63535;BME280;55128;50.230;18.944;2023-06-14T14:09:08;98432.81;;;21.85;48.64
63535;BME280;55128;50.230;18.944;2023-06-14T14:14:09;98429.06;;;21.29;48.92
63535;BME280;55128;50.230;18.944;2023-06-14T14:19:10;98430.06;;;20.99;48.96
63535;BME280;55128;50.230;18.944;2023-06-14T14:24:10;98423.97;;;20.36;48.94
63535;BME280;55128;50.230;18.944;2023-06-14T14:29:11;98427.19;;;20.90;49.16
63535;BME280;55128;50.230;18.944;2023-06-14T14:34:12;98429.19;;;20.78;50.63
63535;BME280;55128;50.230;18.944;2023-06-14T14:39:12;98414.84;;;20.88;51.39
63535;BME280;55128;50.230;18.944;2023-06-14T14:44:12;98416.72;;;20.47;50.53
63535;BME280;55128;50.230;18.944;2023-06-14T14:49:13;98418.94;;;19.91;53.11
63535;BME280;55128;50.230;18.944;2023-06-14T14:54:13;98423.91;;;19.44;54.43
63535;BME280;55128;50.230;18.944;2023-06-14T14:59:14;98422.88;;;19.35;54.00
63535;BME280;55128;50.230;18.944;2023-06-14T15:04:14;98422.88;;;19.03;54.64
63535;BME280;55128;50.230;18.944;2023-06-14T15:09:14;98408.31;;;18.84;55.79
63535;BME280;55128;50.230;18.944;2023-06-14T15:14:15;98413.13;;;18.58;57.10
63535;BME280;55128;50.230;18.944;2023-06-14T15:19:17;98417.22;;;18.85;57.20
63535;BME280;55128;50.230;18.944;2023-06-14T15:24:18;98399.91;;;19.20;56.88
63535;BME280;55128;50.230;18.944;2023-06-14T15:29:18;98403.16;;;19.14;54.41
63535;BME280;55128;50.230;18.944;2023-06-14T15:34:19;98405.78;;;19.25;53.61
63535;BME280;55128;50.230;18.944;2023-06-14T15:39:19;98407.06;;;18.77;54.81
63535;BME280;55128;50.230;18.944;2023-06-14T15:44:20;98402.53;;;18.78;56.27
63535;BME280;55128;50.230;18.944;2023-06-14T15:49:20;98402.94;;;18.84;55.42
63535;BME280;55128;50.230;18.944;2023-06-14T15:54:21;98397.00;;;18.58;54.33
63535;BME280;55128;50.230;18.944;2023-06-14T15:59:21;98410.50;;;18.36;56.97
63535;BME280;55128;50.230;18.944;2023-06-14T16:04:21;98400.13;;;17.97;57.90
63535;BME280;55128;50.230;18.944;2023-06-14T16:09:22;98410.50;;;18.36;57.55
63535;BME280;55128;50.230;18.944;2023-06-14T16:14:24;98403.09;;;18.60;57.34
63535;BME280;55128;50.230;18.944;2023-06-14T16:19:24;98409.72;;;18.56;56.74
63535;BME280;55128;50.230;18.944;2023-06-14T16:24:25;98414.03;;;18.36;56.62
63535;BME280;55128;50.230;18.944;2023-06-14T16:29:25;98415.59;;;18.39;56.03
63535;BME280;55128;50.230;18.944;2023-06-14T16:34:26;98417.09;;;18.09;55.25
63535;BME280;55128;50.230;18.944;2023-06-14T16:39:27;98412.19;;;17.80;56.36
63535;BME280;55128;50.230;18.944;2023-06-14T16:44:28;98433.47;;;17.95;58.09
63535;BME280;55128;50.230;18.944;2023-06-14T16:49:28;98432.34;;;18.42;56.47
63535;BME280;55128;50.230;18.944;2023-06-14T16:54:28;98442.47;;;17.82;58.33
63535;BME280;55128;50.230;18.944;2023-06-14T16:59:29;98444.13;;;17.38;59.84
63535;BME280;55128;50.230;18.944;2023-06-14T17:04:30;98450.66;;;17.34;60.13
63535;BME280;55128;50.230;18.944;2023-06-14T17:09:31;98452.69;;;17.08;61.43
63535;BME280;55128;50.230;18.944;2023-06-14T17:14:32;98453.97;;;17.02;61.77
63535;BME280;55128;50.230;18.944;2023-06-14T17:19:32;98460.59;;;17.09;61.73
63535;BME280;55128;50.230;18.944;2023-06-14T17:24:33;98461.13;;;16.90;62.42
63535;BME280;55128;50.230;18.944;2023-06-14T17:29:33;98473.50;;;17.04;62.96
63535;BME280;55128;50.230;18.944;2023-06-14T17:34:33;98476.34;;;16.90;65.49
63535;BME280;55128;50.230;18.944;2023-06-14T17:39:34;98482.03;;;16.85;66.98
63535;BME280;55128;50.230;18.944;2023-06-14T17:44:36;98492.06;;;16.70;67.40
63535;BME280;55128;50.230;18.944;2023-06-14T17:49:36;98486.72;;;16.70;67.09
63535;BME280;55128;50.230;18.944;2023-06-14T17:54:37;98494.41;;;16.75;66.75
63535;BME280;55128;50.230;18.944;2023-06-14T17:59:37;98495.50;;;16.73;66.55
63535;BME280;55128;50.230;18.944;2023-06-14T18:04:37;98500.25;;;16.56;66.36
63535;BME280;55128;50.230;18.944;2023-06-14T18:09:38;98498.97;;;16.49;66.69
63535;BME280;55128;50.230;18.944;2023-06-14T18:14:38;98493.44;;;16.26;66.69
63535;BME280;55128;50.230;18.944;2023-06-14T18:19:39;98496.88;;;16.16;67.14
63535;BME280;55128;50.230;18.944;2023-06-14T18:24:40;98508.03;;;15.97;67.53
63535;BME280;55128;50.230;18.944;2023-06-14T18:29:40;98505.25;;;15.85;68.50
63535;BME280;55128;50.230;18.944;2023-06-14T18:34:40;98504.94;;;15.77;68.43
63535;BME280;55128;50.230;18.944;2023-06-14T18:39:41;98510.53;;;15.60;69.34
63535;BME280;55128;50.230;18.944;2023-06-14T18:44:41;98510.81;;;15.69;69.12
63535;BME280;55128;50.230;18.944;2023-06-14T18:49:41;98507.13;;;15.58;69.56
63535;BME280;55128;50.230;18.944;2023-06-14T18:54:42;98506.47;;;15.41;70.72
63535;BME280;55128;50.230;18.944;2023-06-14T18:59:42;98512.44;;;15.32;71.02
63535;BME280;55128;50.230;18.944;2023-06-14T19:04:43;98518.78;;;15.04;72.61
63535;BME280;55128;50.230;18.944;2023-06-14T19:09:44;98514.09;;;15.07;72.09
63535;BME280;55128;50.230;18.944;2023-06-14T19:14:44;98522.81;;;14.96;72.67
63535;BME280;55128;50.230;18.944;2023-06-14T19:19:45;98528.56;;;14.90;72.91
63535;BME280;55128;50.230;18.944;2023-06-14T19:24:45;98523.53;;;14.71;72.81
63535;BME280;55128;50.230;18.944;2023-06-14T19:29:45;98531.19;;;14.63;73.37
63535;BME280;55128;50.230;18.944;2023-06-14T19:34:46;98532.06;;;14.49;73.99
63535;BME280;55128;50.230;18.944;2023-06-14T19:39:46;98530.81;;;14.26;75.16
63535;BME280;55128;50.230;18.944;2023-06-14T19:44:46;98543.13;;;14.14;75.93
63535;BME280;55128;50.230;18.944;2023-06-14T19:49:47;98540.72;;;13.95;76.54
63535;BME280;55128;50.230;18.944;2023-06-14T19:54:47;98535.06;;;13.71;78.14
63535;BME280;55128;50.230;18.944;2023-06-14T19:59:47;98531.97;;;13.49;78.57
63535;BME280;55128;50.230;18.944;2023-06-14T20:04:48;98531.38;;;13.44;78.54
63535;BME280;55128;50.230;18.944;2023-06-14T20:09:48;98539.38;;;13.44;78.88
63535;BME280;55128;50.230;18.944;2023-06-14T20:14:49;98533.94;;;13.31;78.55
63535;BME280;55128;50.230;18.944;2023-06-14T20:19:50;98529.88;;;13.23;79.69
63535;BME280;55128;50.230;18.944;2023-06-14T20:24:50;98527.13;;;13.09;79.56
63535;BME280;55128;50.230;18.944;2023-06-14T20:29:51;98532.22;;;12.98;80.31
63535;BME280;55128;50.230;18.944;2023-06-14T20:34:53;98533.28;;;12.79;81.34
63535;BME280;55128;50.230;18.944;2023-06-14T20:39:54;98534.13;;;12.64;81.43
63535;BME280;55128;50.230;18.944;2023-06-14T20:45:03;98533.97;;;12.67;81.23
63535;BME280;55128;50.230;18.944;2023-06-14T20:50:04;98532.94;;;12.54;81.66
63535;BME280;55128;50.230;18.944;2023-06-14T20:55:05;98528.56;;;12.53;81.81
63535;BME280;55128;50.230;18.944;2023-06-14T21:00:07;98530.09;;;12.41;82.52
63535;BME280;55128;50.230;18.944;2023-06-14T21:05:10;98529.81;;;12.45;82.58
63535;BME280;55128;50.230;18.944;2023-06-14T21:10:11;98539.22;;;12.19;82.31
63535;BME280;55128;50.230;18.944;2023-06-14T21:15:11;98539.31;;;12.18;82.70
63535;BME280;55128;50.230;18.944;2023-06-14T21:20:12;98539.00;;;11.91;83.68
63535;BME280;55128;50.230;18.944;2023-06-14T21:25:12;98548.13;;;11.85;83.97
63535;BME280;55128;50.230;18.944;2023-06-14T21:30:15;98556.59;;;11.76;84.62
63535;BME280;55128;50.230;18.944;2023-06-14T21:35:16;98551.91;;;11.81;83.88
63535;BME280;55128;50.230;18.944;2023-06-14T21:40:17;98546.88;;;11.75;83.74
63535;BME280;55128;50.230;18.944;2023-06-14T21:45:18;98554.47;;;11.65;82.80
63535;BME280;55128;50.230;18.944;2023-06-14T21:50:18;98544.31;;;11.56;83.78
63535;BME280;55128;50.230;18.944;2023-06-14T21:55:18;98548.22;;;11.48;83.85
63535;BME280;55128;50.230;18.944;2023-06-14T22:00:23;98543.28;;;11.41;83.53
63535;BME280;55128;50.230;18.944;2023-06-14T22:05:24;98546.19;;;11.36;83.89
63535;BME280;55128;50.230;18.944;2023-06-14T22:10:25;98542.81;;;11.15;84.68
63535;BME280;55128;50.230;18.944;2023-06-14T22:15:26;98542.59;;;11.20;84.64
63535;BME280;55128;50.230;18.944;2023-06-14T22:20:27;98542.66;;;11.18;84.73
63535;BME280;55128;50.230;18.944;2023-06-14T22:25:29;98539.06;;;11.19;85.00
63535;BME280;55128;50.230;18.944;2023-06-14T22:30:30;98541.41;;;11.25;84.80
63535;BME280;55128;50.230;18.944;2023-06-14T22:35:32;98539.06;;;11.37;85.06
63535;BME280;55128;50.230;18.944;2023-06-14T22:40:33;98540.81;;;11.38;85.13
63535;BME280;55128;50.230;18.944;2023-06-14T22:45:33;98537.19;;;11.39;85.62
63535;BME280;55128;50.230;18.944;2023-06-14T22:50:38;98540.03;;;11.53;85.13
63535;BME280;55128;50.230;18.944;2023-06-14T22:55:38;98534.84;;;11.50;84.49
63535;BME280;55128;50.230;18.944;2023-06-14T23:00:38;98527.44;;;11.39;84.85
63535;BME280;55128;50.230;18.944;2023-06-14T23:05:39;98526.41;;;11.24;84.72
63535;BME280;55128;50.230;18.944;2023-06-14T23:10:41;98520.00;;;11.28;84.35
63535;BME280;55128;50.230;18.944;2023-06-14T23:15:42;98529.22;;;11.21;84.27
63535;BME280;55128;50.230;18.944;2023-06-14T23:20:42;98518.13;;;11.13;84.80
63535;BME280;55128;50.230;18.944;2023-06-14T23:25:43;98518.72;;;11.01;84.46
63535;BME280;55128;50.230;18.944;2023-06-14T23:30:45;98517.38;;;10.92;84.25
63535;BME280;55128;50.230;18.944;2023-06-14T23:35:46;98527.03;;;10.76;84.65
63535;BME280;55128;50.230;18.944;2023-06-14T23:40:47;98525.63;;;10.68;85.22
63535;BME280;55128;50.230;18.944;2023-06-14T23:45:49;98530.03;;;10.87;85.85
63535;BME280;55128;50.230;18.944;2023-06-14T23:50:53;98518.53;;;10.86;85.28
63535;BME280;55128;50.230;18.944;2023-06-14T23:55:54;98510.50;;;10.88;85.38
